sensor_id;sensor_type;location;lat;lon;timestamp;P1;durP1;ratioP1;P2;durP2;ratioP2
39728;SDS011;25402;42.004;23.088;2022-09-02T00:01:43;14.98;;;8.35;;
39728;SDS011;25402;42.004;23.088;2022-09-02T00:04:13;8.65;;;5.03;;
39728;SDS011;25402;42.004;23.088;2022-09-02T00:06:43;12.60;;;5.70;;
39728;SDS011;25402;42.004;23.088;2022-09-02T00:09:12;16.65;;;6.65;;
39728;SDS011;25402;42.004;23.088;2022-09-02T00:11:41;38.80;;;7.07;;
39728;SDS011;25402;42.004;23.088;2022-09-02T00:14:12;17.67;;;4.95;;
39728;SDS011;25402;42.004;23.088;2022-09-02T00:16:42;13.75;;;4.75;;
39728;SDS011;25402;42.004;23.088;2022-09-02T00:19:15;11.25;;;5.45;;
39728;SDS011;25402;42.004;23.088;2022-09-02T00:21:43;8.52;;;5.55;;
39728;SDS011;25402;42.004;23.088;2022-09-02T00:24:10;9.93;;;5.35;;
39728;SDS011;25402;42.004;23.088;2022-09-02T00:26:37;9.20;;;5.60;;
39728;SDS011;25402;42.004;23.088;2022-09-02T00:29:04;10.75;;;5.05;;
39728;SDS011;25402;42.004;23.088;2022-09-02T00:31:33;10.57;;;5.15;;
39728;SDS011;25402;42.004;23.088;2022-09-02T00:34:00;11.70;;;6.40;;
39728;SDS011;25402;42.004;23.088;2022-09-02T00:36:28;15.15;;;9.77;;
39728;SDS011;25402;42.004;23.088;2022-09-02T00:38:55;26.40;;;15.93;;
39728;SDS011;25402;42.004;23.088;2022-09-02T00:41:23;13.13;;;8.25;;
39728;SDS011;25402;42.004;23.088;2022-09-02T00:43:53;12.02;;;5.47;;
39728;SDS011;25402;42.004;23.088;2022-09-02T00:46:23;9.10;;;4.63;;
39728;SDS011;25402;42.004;23.088;2022-09-02T00:48:54;8.63;;;4.22;;
39728;SDS011;25402;42.004;23.088;2022-09-02T00:51:24;10.80;;;5.07;;
39728;SDS011;25402;42.004;23.088;2022-09-02T00:53:53;33.83;;;5.68;;
39728;SDS011;25402;42.004;23.088;2022-09-02T00:56:23;13.65;;;5.40;;
39728;SDS011;25402;42.004;23.088;2022-09-02T00:58:52;9.63;;;5.95;;
39728;SDS011;25402;42.004;23.088;2022-09-02T01:01:20;48.17;;;10.23;;
39728;SDS011;25402;42.004;23.088;2022-09-02T01:03:48;26.23;;;7.32;;
39728;SDS011;25402;42.004;23.088;2022-09-02T01:06:18;34.03;;;7.00;;
39728;SDS011;25402;42.004;23.088;2022-09-02T01:08:50;21.63;;;6.80;;
39728;SDS011;25402;42.004;23.088;2022-09-02T01:11:21;21.20;;;7.55;;
39728;SDS011;25402;42.004;23.088;2022-09-02T01:13:48;21.73;;;6.97;;
39728;SDS011;25402;42.004;23.088;2022-09-02T01:16:16;26.92;;;7.70;;
39728;SDS011;25402;42.004;23.088;2022-09-02T01:18:50;34.90;;;7.25;;
39728;SDS011;25402;42.004;23.088;2022-09-02T01:21:22;18.02;;;7.72;;
39728;SDS011;25402;42.004;23.088;2022-09-02T01:23:51;14.15;;;7.40;;
39728;SDS011;25402;42.004;23.088;2022-09-02T01:26:19;10.85;;;7.30;;
39728;SDS011;25402;42.004;23.088;2022-09-02T01:28:47;20.55;;;7.97;;
39728;SDS011;25402;42.004;23.088;2022-09-02T01:31:14;15.93;;;7.82;;
39728;SDS011;25402;42.004;23.088;2022-09-02T01:33:41;12.88;;;7.43;;
39728;SDS011;25402;42.004;23.088;2022-09-02T01:36:08;16.35;;;8.07;;
39728;SDS011;25402;42.004;23.088;2022-09-02T01:38:35;13.45;;;7.55;;
39728;SDS011;25402;42.004;23.088;2022-09-02T01:41:04;10.30;;;7.65;;
39728;SDS011;25402;42.004;23.088;2022-09-02T01:43:31;11.50;;;7.50;;
39728;SDS011;25402;42.004;23.088;2022-09-02T01:45:58;15.02;;;7.40;;
39728;SDS011;25402;42.004;23.088;2022-09-02T01:48:27;10.68;;;7.72;;
39728;SDS011;25402;42.004;23.088;2022-09-02T01:50:55;12.25;;;7.07;;
39728;SDS011;25402;42.004;23.088;2022-09-02T01:53:24;12.35;;;7.07;;
39728;SDS011;25402;42.004;23.088;2022-09-02T01:55:52;10.25;;;6.60;;
39728;SDS011;25402;42.004;23.088;2022-09-02T01:58:20;14.52;;;7.10;;
39728;SDS011;25402;42.004;23.088;2022-09-02T02:00:47;16.50;;;7.03;;
39728;SDS011;25402;42.004;23.088;2022-09-02T02:03:15;12.18;;;7.93;;
39728;SDS011;25402;42.004;23.088;2022-09-02T02:05:42;11.70;;;7.25;;
39728;SDS011;25402;42.004;23.088;2022-09-02T02:08:10;13.27;;;7.75;;
39728;SDS011;25402;42.004;23.088;2022-09-02T02:10:38;11.52;;;7.53;;
39728;SDS011;25402;42.004;23.088;2022-09-02T02:13:06;15.27;;;7.47;;
39728;SDS011;25402;42.004;23.088;2022-09-02T02:15:35;12.00;;;8.20;;
39728;SDS011;25402;42.004;23.088;2022-09-02T02:18:03;15.05;;;8.10;;
39728;SDS011;25402;42.004;23.088;2022-09-02T02:20:30;11.63;;;7.15;;
39728;SDS011;25402;42.004;23.088;2022-09-02T02:22:57;13.20;;;7.60;;
39728;SDS011;25402;42.004;23.088;2022-09-02T02:25:24;11.43;;;7.60;;
39728;SDS011;25402;42.004;23.088;2022-09-02T02:27:52;12.30;;;7.20;;
39728;SDS011;25402;42.004;23.088;2022-09-02T02:30:19;11.88;;;6.93;;
39728;SDS011;25402;42.004;23.088;2022-09-02T02:32:49;10.02;;;7.18;;
39728;SDS011;25402;42.004;23.088;2022-09-02T02:35:16;13.82;;;7.13;;
39728;SDS011;25402;42.004;23.088;2022-09-02T02:37:45;12.25;;;7.38;;
39728;SDS011;25402;42.004;23.088;2022-09-02T02:40:14;12.15;;;7.32;;
39728;SDS011;25402;42.004;23.088;2022-09-02T02:42:43;10.38;;;6.57;;
39728;SDS011;25402;42.004;23.088;2022-09-02T02:45:10;15.05;;;7.72;;
39728;SDS011;25402;42.004;23.088;2022-09-02T02:47:37;22.45;;;13.27;;
39728;SDS011;25402;42.004;23.088;2022-09-02T02:50:07;14.90;;;8.50;;
39728;SDS011;25402;42.004;23.088;2022-09-02T02:52:36;14.40;;;9.50;;
39728;SDS011;25402;42.004;23.088;2022-09-02T02:55:04;14.68;;;8.20;;
39728;SDS011;25402;42.004;23.088;2022-09-02T02:57:33;16.15;;;8.48;;
39728;SDS011;25402;42.004;23.088;2022-09-02T03:00:04;13.18;;;7.78;;
39728;SDS011;25402;42.004;23.088;2022-09-02T03:02:32;18.48;;;7.93;;
39728;SDS011;25402;42.004;23.088;2022-09-02T03:04:59;13.35;;;8.02;;
39728;SDS011;25402;42.004;23.088;2022-09-02T03:07:28;11.82;;;7.80;;
39728;SDS011;25402;42.004;23.088;2022-09-02T03:09:55;15.63;;;8.38;;
39728;SDS011;25402;42.004;23.088;2022-09-02T03:12:22;14.73;;;8.32;;
39728;SDS011;25402;42.004;23.088;2022-09-02T03:14:50;13.30;;;8.38;;
39728;SDS011;25402;42.004;23.088;2022-09-02T03:17:17;10.88;;;7.60;;
39728;SDS011;25402;42.004;23.088;2022-09-02T03:19:45;12.63;;;8.05;;
39728;SDS011;25402;42.004;23.088;2022-09-02T03:22:12;10.60;;;7.68;;
39728;SDS011;25402;42.004;23.088;2022-09-02T03:24:40;11.85;;;8.27;;
39728;SDS011;25402;42.004;23.088;2022-09-02T03:27:07;10.82;;;7.47;;
39728;SDS011;25402;42.004;23.088;2022-09-02T03:29:35;11.75;;;7.38;;
39728;SDS011;25402;42.004;23.088;2022-09-02T03:32:02;13.15;;;7.50;;
39728;SDS011;25402;42.004;23.088;2022-09-02T03:52:38;13.00;;;8.15;;
39728;SDS011;25402;42.004;23.088;2022-09-02T03:55:05;13.35;;;7.30;;
39728;SDS011;25402;42.004;23.088;2022-09-02T04:00:08;11.13;;;7.30;;
39728;SDS011;25402;42.004;23.088;2022-09-02T04:02:37;10.55;;;7.20;;
39728;SDS011;25402;42.004;23.088;2022-09-02T04:05:05;8.98;;;7.30;;
39728;SDS011;25402;42.004;23.088;2022-09-02T04:10:10;16.02;;;7.90;;
39728;SDS011;25402;42.004;23.088;2022-09-02T04:15:12;12.00;;;6.03;;
39728;SDS011;25402;42.004;23.088;2022-09-02T04:17:40;13.85;;;8.43;;
39728;SDS011;25402;42.004;23.088;2022-09-02T04:20:09;12.90;;;7.05;;
39728;SDS011;25402;42.004;23.088;2022-09-02T04:22:38;15.35;;;7.57;;
39728;SDS011;25402;42.004;23.088;2022-09-02T04:25:06;19.60;;;7.50;;
39728;SDS011;25402;42.004;23.088;2022-09-02T04:27:36;17.17;;;6.93;;
39728;SDS011;25402;42.004;23.088;2022-09-02T04:30:04;10.98;;;7.60;;
39728;SDS011;25402;42.004;23.088;2022-09-02T04:32:32;13.90;;;6.68;;
39728;SDS011;25402;42.004;23.088;2022-09-02T04:34:59;11.18;;;6.70;;
39728;SDS011;25402;42.004;23.088;2022-09-02T04:37:27;15.38;;;7.22;;
39728;SDS011;25402;42.004;23.088;2022-09-02T04:39:57;12.60;;;8.32;;
39728;SDS011;25402;42.004;23.088;2022-09-02T04:42:26;17.45;;;10.57;;
39728;SDS011;25402;42.004;23.088;2022-09-02T04:44:53;12.40;;;9.77;;
39728;SDS011;25402;42.004;23.088;2022-09-02T04:47:22;18.02;;;9.25;;
39728;SDS011;25402;42.004;23.088;2022-09-02T04:49:50;15.40;;;11.35;;
39728;SDS011;25402;42.004;23.088;2022-09-02T04:52:18;21.95;;;13.73;;
39728;SDS011;25402;42.004;23.088;2022-09-02T04:54:45;21.33;;;15.63;;
39728;SDS011;25402;42.004;23.088;2022-09-02T04:57:13;27.95;;;16.92;;
39728;SDS011;25402;42.004;23.088;2022-09-02T04:59:42;32.53;;;16.08;;
39728;SDS011;25402;42.004;23.088;2022-09-02T05:02:09;21.17;;;14.13;;
39728;SDS011;25402;42.004;23.088;2022-09-02T05:04:37;27.10;;;13.48;;
39728;SDS011;25402;42.004;23.088;2022-09-02T05:07:04;21.90;;;13.25;;
39728;SDS011;25402;42.004;23.088;2022-09-02T05:09:31;20.92;;;11.00;;
39728;SDS011;25402;42.004;23.088;2022-09-02T05:11:59;24.08;;;12.50;;
39728;SDS011;25402;42.004;23.088;2022-09-02T05:14:28;17.30;;;10.07;;
39728;SDS011;25402;42.004;23.088;2022-09-02T05:16:58;14.20;;;9.05;;
39728;SDS011;25402;42.004;23.088;2022-09-02T05:19:26;15.68;;;9.63;;
39728;SDS011;25402;42.004;23.088;2022-09-02T05:21:53;13.05;;;10.05;;
39728;SDS011;25402;42.004;23.088;2022-09-02T05:24:23;14.73;;;9.60;;
39728;SDS011;25402;42.004;23.088;2022-09-02T05:26:50;15.60;;;9.18;;
39728;SDS011;25402;42.004;23.088;2022-09-02T05:29:17;13.40;;;8.52;;
39728;SDS011;25402;42.004;23.088;2022-09-02T05:31:46;9.85;;;7.35;;
39728;SDS011;25402;42.004;23.088;2022-09-02T05:34:15;14.93;;;7.20;;
39728;SDS011;25402;42.004;23.088;2022-09-02T05:36:43;17.67;;;9.00;;
39728;SDS011;25402;42.004;23.088;2022-09-02T05:39:11;8.73;;;6.60;;
39728;SDS011;25402;42.004;23.088;2022-09-02T05:41:38;14.52;;;7.65;;
39728;SDS011;25402;42.004;23.088;2022-09-02T05:44:05;8.90;;;5.65;;
39728;SDS011;25402;42.004;23.088;2022-09-02T05:46:33;12.93;;;6.72;;
39728;SDS011;25402;42.004;23.088;2022-09-02T05:49:00;20.33;;;7.20;;
39728;SDS011;25402;42.004;23.088;2022-09-02T05:51:43;9.45;;;7.00;;
39728;SDS011;25402;42.004;23.088;2022-09-02T05:54:13;14.48;;;6.45;;
39728;SDS011;25402;42.004;23.088;2022-09-02T05:56:43;17.10;;;7.47;;
39728;SDS011;25402;42.004;23.088;2022-09-02T05:59:11;12.95;;;7.60;;
39728;SDS011;25402;42.004;23.088;2022-09-02T06:01:39;11.00;;;7.05;;
39728;SDS011;25402;42.004;23.088;2022-09-02T06:04:06;9.52;;;6.53;;
39728;SDS011;25402;42.004;23.088;2022-09-02T06:06:34;14.32;;;6.22;;
39728;SDS011;25402;42.004;23.088;2022-09-02T06:09:04;17.90;;;6.70;;
39728;SDS011;25402;42.004;23.088;2022-09-02T06:11:32;13.32;;;7.13;;
39728;SDS011;25402;42.004;23.088;2022-09-02T06:14:01;10.30;;;6.70;;
39728;SDS011;25402;42.004;23.088;2022-09-02T06:16:29;15.50;;;7.15;;
39728;SDS011;25402;42.004;23.088;2022-09-02T06:18:57;11.82;;;6.53;;
39728;SDS011;25402;42.004;23.088;2022-09-02T06:21:24;8.98;;;6.28;;
39728;SDS011;25402;42.004;23.088;2022-09-02T06:23:51;9.63;;;5.43;;
39728;SDS011;25402;42.004;23.088;2022-09-02T06:26:20;8.48;;;5.70;;
39728;SDS011;25402;42.004;23.088;2022-09-02T06:28:47;9.70;;;6.47;;
39728;SDS011;25402;42.004;23.088;2022-09-02T06:31:15;9.35;;;6.68;;
39728;SDS011;25402;42.004;23.088;2022-09-02T06:33:44;13.38;;;7.05;;
39728;SDS011;25402;42.004;23.088;2022-09-02T06:36:14;14.85;;;6.07;;
39728;SDS011;25402;42.004;23.088;2022-09-02T06:38:45;15.60;;;6.78;;
39728;SDS011;25402;42.004;23.088;2022-09-02T06:41:14;8.05;;;6.28;;
39728;SDS011;25402;42.004;23.088;2022-09-02T06:43:45;10.68;;;6.93;;
39728;SDS011;25402;42.004;23.088;2022-09-02T06:46:14;12.05;;;6.07;;
39728;SDS011;25402;42.004;23.088;2022-09-02T06:48:42;7.70;;;5.85;;
39728;SDS011;25402;42.004;23.088;2022-09-02T06:51:14;11.27;;;5.97;;
39728;SDS011;25402;42.004;23.088;2022-09-02T06:53:42;9.57;;;5.50;;
39728;SDS011;25402;42.004;23.088;2022-09-02T06:56:09;14.93;;;6.60;;
39728;SDS011;25402;42.004;23.088;2022-09-02T06:58:36;15.07;;;6.82;;
39728;SDS011;25402;42.004;23.088;2022-09-02T07:01:04;14.13;;;6.63;;
39728;SDS011;25402;42.004;23.088;2022-09-02T07:03:32;16.45;;;9.60;;
39728;SDS011;25402;42.004;23.088;2022-09-02T07:06:16;27.40;;;14.63;;
39728;SDS011;25402;42.004;23.088;2022-09-02T07:08:43;29.08;;;16.45;;
39728;SDS011;25402;42.004;23.088;2022-09-02T07:11:15;18.05;;;11.88;;
39728;SDS011;25402;42.004;23.088;2022-09-02T07:13:45;24.05;;;12.50;;
39728;SDS011;25402;42.004;23.088;2022-09-02T07:16:14;16.33;;;10.27;;
39728;SDS011;25402;42.004;23.088;2022-09-02T07:18:42;12.15;;;7.60;;
39728;SDS011;25402;42.004;23.088;2022-09-02T07:21:10;10.65;;;7.10;;
39728;SDS011;25402;42.004;23.088;2022-09-02T07:23:38;11.88;;;6.85;;
39728;SDS011;25402;42.004;23.088;2022-09-02T07:26:10;10.77;;;6.30;;
39728;SDS011;25402;42.004;23.088;2022-09-02T07:28:38;8.23;;;6.38;;
39728;SDS011;25402;42.004;23.088;2022-09-02T07:31:06;7.97;;;5.68;;
39728;SDS011;25402;42.004;23.088;2022-09-02T07:33:35;8.88;;;5.72;;
39728;SDS011;25402;42.004;23.088;2022-09-02T07:36:03;11.48;;;6.15;;
39728;SDS011;25402;42.004;23.088;2022-09-02T07:38:30;10.05;;;5.95;;
39728;SDS011;25402;42.004;23.088;2022-09-02T07:40:58;9.55;;;5.78;;
39728;SDS011;25402;42.004;23.088;2022-09-02T07:43:26;10.23;;;6.25;;
39728;SDS011;25402;42.004;23.088;2022-09-02T07:45:54;8.43;;;5.53;;
39728;SDS011;25402;42.004;23.088;2022-09-02T07:48:22;10.30;;;5.68;;
39728;SDS011;25402;42.004;23.088;2022-09-02T07:50:51;8.07;;;5.63;;
39728;SDS011;25402;42.004;23.088;2022-09-02T07:53:19;8.05;;;5.40;;
39728;SDS011;25402;42.004;23.088;2022-09-02T07:55:47;7.53;;;5.50;;
39728;SDS011;25402;42.004;23.088;2022-09-02T07:58:14;8.20;;;4.53;;
39728;SDS011;25402;42.004;23.088;2022-09-02T08:00:42;6.68;;;4.38;;
39728;SDS011;25402;42.004;23.088;2022-09-02T08:03:10;5.03;;;4.15;;
39728;SDS011;25402;42.004;23.088;2022-09-02T08:05:39;5.03;;;4.10;;
39728;SDS011;25402;42.004;23.088;2022-09-02T08:08:10;7.63;;;4.82;;
39728;SDS011;25402;42.004;23.088;2022-09-02T08:10:37;9.52;;;5.13;;
39728;SDS011;25402;42.004;23.088;2022-09-02T08:13:05;5.55;;;4.40;;
39728;SDS011;25402;42.004;23.088;2022-09-02T08:15:35;7.90;;;4.97;;
39728;SDS011;25402;42.004;23.088;2022-09-02T08:18:03;9.32;;;4.70;;
39728;SDS011;25402;42.004;23.088;2022-09-02T08:20:32;6.15;;;4.65;;
39728;SDS011;25402;42.004;23.088;2022-09-02T08:22:59;5.47;;;4.60;;
39728;SDS011;25402;42.004;23.088;2022-09-02T08:25:31;6.07;;;4.13;;
39728;SDS011;25402;42.004;23.088;2022-09-02T08:27:58;7.00;;;3.83;;
39728;SDS011;25402;42.004;23.088;2022-09-02T08:30:25;4.57;;;3.95;;
39728;SDS011;25402;42.004;23.088;2022-09-02T08:32:52;7.78;;;3.47;;
39728;SDS011;25402;42.004;23.088;2022-09-02T08:35:22;6.68;;;3.97;;
39728;SDS011;25402;42.004;23.088;2022-09-02T08:37:51;7.40;;;3.70;;
39728;SDS011;25402;42.004;23.088;2022-09-02T08:40:19;5.97;;;3.67;;
39728;SDS011;25402;42.004;23.088;2022-09-02T08:42:49;5.47;;;3.45;;
39728;SDS011;25402;42.004;23.088;2022-09-02T08:45:20;4.38;;;3.25;;
39728;SDS011;25402;42.004;23.088;2022-09-02T08:47:54;3.47;;;3.07;;
39728;SDS011;25402;42.004;23.088;2022-09-02T08:50:28;4.50;;;3.00;;
39728;SDS011;25402;42.004;23.088;2022-09-02T08:52:58;5.45;;;3.45;;
39728;SDS011;25402;42.004;23.088;2022-09-02T08:55:32;2.78;;;2.55;;
39728;SDS011;25402;42.004;23.088;2022-09-02T08:58:06;4.50;;;3.30;;
39728;SDS011;25402;42.004;23.088;2022-09-02T09:00:34;7.97;;;3.17;;
39728;SDS011;25402;42.004;23.088;2022-09-02T09:03:09;15.02;;;8.85;;
39728;SDS011;25402;42.004;23.088;2022-09-02T09:05:44;13.93;;;8.57;;
39728;SDS011;25402;42.004;23.088;2022-09-02T09:08:18;11.60;;;7.75;;
39728;SDS011;25402;42.004;23.088;2022-09-02T09:10:58;14.00;;;11.07;;
39728;SDS011;25402;42.004;23.088;2022-09-02T09:16:37;12.18;;;6.20;;
39728;SDS011;25402;42.004;23.088;2022-09-02T09:19:08;15.50;;;8.73;;
39728;SDS011;25402;42.004;23.088;2022-09-02T09:21:39;11.43;;;6.50;;
39728;SDS011;25402;42.004;23.088;2022-09-02T09:24:08;7.10;;;5.28;;
39728;SDS011;25402;42.004;23.088;2022-09-02T09:26:46;10.07;;;8.10;;
39728;SDS011;25402;42.004;23.088;2022-09-02T09:29:15;6.25;;;4.57;;
39728;SDS011;25402;42.004;23.088;2022-09-02T09:31:42;10.18;;;8.75;;
39728;SDS011;25402;42.004;23.088;2022-09-02T09:34:12;17.08;;;11.40;;
39728;SDS011;25402;42.004;23.088;2022-09-02T09:36:49;16.23;;;9.82;;
39728;SDS011;25402;42.004;23.088;2022-09-02T09:39:19;8.70;;;5.80;;
39728;SDS011;25402;42.004;23.088;2022-09-02T09:41:49;6.10;;;3.85;;
39728;SDS011;25402;42.004;23.088;2022-09-02T09:47:07;7.13;;;5.75;;
39728;SDS011;25402;42.004;23.088;2022-09-02T09:49:35;11.60;;;4.95;;
39728;SDS011;25402;42.004;23.088;2022-09-02T09:52:04;9.48;;;4.47;;
39728;SDS011;25402;42.004;23.088;2022-09-02T09:54:32;6.80;;;4.55;;
39728;SDS011;25402;42.004;23.088;2022-09-02T09:57:12;11.13;;;4.50;;
39728;SDS011;25402;42.004;23.088;2022-09-02T09:59:44;11.63;;;4.65;;
39728;SDS011;25402;42.004;23.088;2022-09-02T10:02:20;10.88;;;5.32;;
39728;SDS011;25402;42.004;23.088;2022-09-02T10:04:49;9.32;;;4.72;;
39728;SDS011;25402;42.004;23.088;2022-09-02T10:07:32;10.65;;;5.20;;
39728;SDS011;25402;42.004;23.088;2022-09-02T10:12:50;10.05;;;5.38;;
39728;SDS011;25402;42.004;23.088;2022-09-02T10:15:24;10.43;;;5.63;;
39728;SDS011;25402;42.004;23.088;2022-09-02T10:17:58;6.85;;;5.60;;
39728;SDS011;25402;42.004;23.088;2022-09-02T10:20:37;14.85;;;5.57;;
39728;SDS011;25402;42.004;23.088;2022-09-02T10:23:16;7.57;;;5.38;;
39728;SDS011;25402;42.004;23.088;2022-09-02T10:26:01;17.00;;;5.05;;
39728;SDS011;25402;42.004;23.088;2022-09-02T10:28:39;9.85;;;5.63;;
39728;SDS011;25402;42.004;23.088;2022-09-02T10:31:22;11.88;;;6.18;;
39728;SDS011;25402;42.004;23.088;2022-09-02T10:34:01;7.53;;;5.68;;
39728;SDS011;25402;42.004;23.088;2022-09-02T10:36:39;14.88;;;7.15;;
39728;SDS011;25402;42.004;23.088;2022-09-02T10:39:25;11.48;;;7.63;;
39728;SDS011;25402;42.004;23.088;2022-09-02T10:42:10;10.55;;;7.28;;
39728;SDS011;25402;42.004;23.088;2022-09-02T10:44:59;16.45;;;6.72;;
39728;SDS011;25402;42.004;23.088;2022-09-02T10:47:36;13.13;;;5.72;;
39728;SDS011;25402;42.004;23.088;2022-09-02T10:50:07;15.90;;;6.80;;
39728;SDS011;25402;42.004;23.088;2022-09-02T10:52:59;9.70;;;5.90;;
39728;SDS011;25402;42.004;23.088;2022-09-02T10:55:48;11.07;;;6.03;;
39728;SDS011;25402;42.004;23.088;2022-09-02T10:58:26;9.77;;;5.93;;
39728;SDS011;25402;42.004;23.088;2022-09-02T11:01:02;11.82;;;6.35;;
39728;SDS011;25402;42.004;23.088;2022-09-02T11:03:34;20.38;;;6.35;;
39728;SDS011;25402;42.004;23.088;2022-09-02T11:06:08;17.38;;;6.75;;
39728;SDS011;25402;42.004;23.088;2022-09-02T11:08:45;12.95;;;6.50;;
39728;SDS011;25402;42.004;23.088;2022-09-02T11:11:17;12.85;;;6.05;;
39728;SDS011;25402;42.004;23.088;2022-09-02T11:13:52;14.70;;;6.55;;
39728;SDS011;25402;42.004;23.088;2022-09-02T11:16:28;9.88;;;6.63;;
39728;SDS011;25402;42.004;23.088;2022-09-02T11:19:04;14.90;;;7.72;;
39728;SDS011;25402;42.004;23.088;2022-09-02T11:21:43;13.70;;;7.38;;
39728;SDS011;25402;42.004;23.088;2022-09-02T11:24:20;11.80;;;7.13;;
39728;SDS011;25402;42.004;23.088;2022-09-02T11:26:53;12.48;;;7.10;;
39728;SDS011;25402;42.004;23.088;2022-09-02T11:29:26;11.52;;;6.78;;
39728;SDS011;25402;42.004;23.088;2022-09-02T11:32:05;12.90;;;9.25;;
39728;SDS011;25402;42.004;23.088;2022-09-02T11:34:39;9.05;;;6.68;;
39728;SDS011;25402;42.004;23.088;2022-09-02T11:37:13;12.25;;;7.10;;
39728;SDS011;25402;42.004;23.088;2022-09-02T11:39:55;15.00;;;6.90;;
39728;SDS011;25402;42.004;23.088;2022-09-02T11:42:37;11.73;;;6.22;;
39728;SDS011;25402;42.004;23.088;2022-09-02T11:45:31;13.60;;;6.93;;
39728;SDS011;25402;42.004;23.088;2022-09-02T11:48:30;10.23;;;6.70;;
39728;SDS011;25402;42.004;23.088;2022-09-02T11:54:31;11.38;;;6.55;;
39728;SDS011;25402;42.004;23.088;2022-09-02T11:57:03;12.68;;;6.82;;
39728;SDS011;25402;42.004;23.088;2022-09-02T12:02:40;22.65;;;12.88;;
39728;SDS011;25402;42.004;23.088;2022-09-02T12:11:46;9.93;;;7.07;;
39728;SDS011;25402;42.004;23.088;2022-09-02T12:17:32;18.50;;;7.60;;
39728;SDS011;25402;42.004;23.088;2022-09-02T12:20:02;12.85;;;6.55;;
39728;SDS011;25402;42.004;23.088;2022-09-02T12:22:32;13.77;;;7.13;;
39728;SDS011;25402;42.004;23.088;2022-09-02T12:31:15;10.43;;;6.55;;
39728;SDS011;25402;42.004;23.088;2022-09-02T12:34:17;10.85;;;6.70;;
39728;SDS011;25402;42.004;23.088;2022-09-02T12:40:19;16.20;;;7.57;;
39728;SDS011;25402;42.004;23.088;2022-09-02T12:42:54;12.50;;;6.97;;
39728;SDS011;25402;42.004;23.088;2022-09-02T12:45:30;15.77;;;7.20;;
39728;SDS011;25402;42.004;23.088;2022-09-02T12:48:00;10.85;;;7.55;;
39728;SDS011;25402;42.004;23.088;2022-09-02T12:50:49;15.82;;;8.10;;
39728;SDS011;25402;42.004;23.088;2022-09-02T12:53:27;10.60;;;7.63;;
39728;SDS011;25402;42.004;23.088;2022-09-02T12:56:00;15.77;;;7.22;;
39728;SDS011;25402;42.004;23.088;2022-09-02T12:58:32;13.65;;;6.85;;
39728;SDS011;25402;42.004;23.088;2022-09-02T13:01:07;19.27;;;8.18;;
39728;SDS011;25402;42.004;23.088;2022-09-02T13:03:43;20.23;;;8.65;;
39728;SDS011;25402;42.004;23.088;2022-09-02T13:06:31;13.07;;;6.93;;
39728;SDS011;25402;42.004;23.088;2022-09-02T13:21:30;15.48;;;6.90;;
39728;SDS011;25402;42.004;23.088;2022-09-02T13:24:32;12.23;;;6.65;;
39728;SDS011;25402;42.004;23.088;2022-09-02T13:27:35;12.20;;;6.68;;
39728;SDS011;25402;42.004;23.088;2022-09-02T13:30:19;10.48;;;6.97;;
39728;SDS011;25402;42.004;23.088;2022-09-02T13:32:54;11.40;;;6.50;;
39728;SDS011;25402;42.004;23.088;2022-09-02T13:35:26;12.13;;;7.28;;
39728;SDS011;25402;42.004;23.088;2022-09-02T13:37:56;10.55;;;7.22;;
39728;SDS011;25402;42.004;23.088;2022-09-02T13:40:26;16.77;;;6.80;;
39728;SDS011;25402;42.004;23.088;2022-09-02T13:42:55;13.85;;;7.97;;
39728;SDS011;25402;42.004;23.088;2022-09-02T13:45:25;9.85;;;7.25;;
39728;SDS011;25402;42.004;23.088;2022-09-02T13:47:56;12.13;;;7.78;;
39728;SDS011;25402;42.004;23.088;2022-09-02T13:50:26;14.70;;;7.65;;
39728;SDS011;25402;42.004;23.088;2022-09-02T13:52:57;17.05;;;7.30;;
39728;SDS011;25402;42.004;23.088;2022-09-02T13:55:27;11.00;;;7.85;;
39728;SDS011;25402;42.004;23.088;2022-09-02T13:57:56;9.40;;;7.88;;
39728;SDS011;25402;42.004;23.088;2022-09-02T14:00:25;17.70;;;8.43;;
39728;SDS011;25402;42.004;23.088;2022-09-02T14:02:57;17.85;;;8.60;;
39728;SDS011;25402;42.004;23.088;2022-09-02T14:05:26;23.02;;;11.27;;
39728;SDS011;25402;42.004;23.088;2022-09-02T14:07:55;19.45;;;10.40;;
39728;SDS011;25402;42.004;23.088;2022-09-02T14:10:28;28.85;;;9.30;;
39728;SDS011;25402;42.004;23.088;2022-09-02T14:12:55;17.02;;;9.82;;
39728;SDS011;25402;42.004;23.088;2022-09-02T14:15:24;14.98;;;8.15;;
39728;SDS011;25402;42.004;23.088;2022-09-02T14:18:12;20.55;;;8.23;;
39728;SDS011;25402;42.004;23.088;2022-09-02T14:20:51;15.75;;;7.63;;
39728;SDS011;25402;42.004;23.088;2022-09-02T14:23:24;18.98;;;8.57;;
39728;SDS011;25402;42.004;23.088;2022-09-02T14:25:53;17.17;;;7.85;;
39728;SDS011;25402;42.004;23.088;2022-09-02T14:28:22;15.38;;;8.32;;
39728;SDS011;25402;42.004;23.088;2022-09-02T14:30:58;13.35;;;8.60;;
39728;SDS011;25402;42.004;23.088;2022-09-02T14:33:35;14.75;;;8.55;;
39728;SDS011;25402;42.004;23.088;2022-09-02T14:36:05;14.32;;;8.73;;
39728;SDS011;25402;42.004;23.088;2022-09-02T14:38:36;17.45;;;8.55;;
39728;SDS011;25402;42.004;23.088;2022-09-02T14:41:18;15.88;;;8.25;;
39728;SDS011;25402;42.004;23.088;2022-09-02T14:43:48;14.05;;;8.48;;
39728;SDS011;25402;42.004;23.088;2022-09-02T14:46:26;14.40;;;9.25;;
39728;SDS011;25402;42.004;23.088;2022-09-02T14:48:58;15.40;;;8.75;;
39728;SDS011;25402;42.004;23.088;2022-09-02T14:51:31;20.58;;;8.75;;
39728;SDS011;25402;42.004;23.088;2022-09-02T14:54:04;15.00;;;8.55;;
39728;SDS011;25402;42.004;23.088;2022-09-02T14:56:42;20.42;;;8.23;;
39728;SDS011;25402;42.004;23.088;2022-09-02T14:59:13;21.58;;;9.38;;
39728;SDS011;25402;42.004;23.088;2022-09-02T15:01:40;19.70;;;8.48;;
39728;SDS011;25402;42.004;23.088;2022-09-02T15:04:11;13.30;;;8.32;;
39728;SDS011;25402;42.004;23.088;2022-09-02T15:06:38;21.85;;;8.70;;
39728;SDS011;25402;42.004;23.088;2022-09-02T15:09:07;14.75;;;9.48;;
39728;SDS011;25402;42.004;23.088;2022-09-02T15:11:34;13.55;;;8.80;;
39728;SDS011;25402;42.004;23.088;2022-09-02T15:14:03;18.48;;;9.45;;
39728;SDS011;25402;42.004;23.088;2022-09-02T15:16:30;16.20;;;9.57;;
39728;SDS011;25402;42.004;23.088;2022-09-02T15:18:57;20.02;;;9.82;;
39728;SDS011;25402;42.004;23.088;2022-09-02T15:21:24;19.17;;;8.60;;
39728;SDS011;25402;42.004;23.088;2022-09-02T15:23:51;18.35;;;10.07;;
39728;SDS011;25402;42.004;23.088;2022-09-02T15:26:20;16.58;;;9.88;;
39728;SDS011;25402;42.004;23.088;2022-09-02T15:28:47;20.60;;;9.60;;
39728;SDS011;25402;42.004;23.088;2022-09-02T15:31:14;15.93;;;8.95;;
39728;SDS011;25402;42.004;23.088;2022-09-02T15:33:41;14.05;;;9.32;;
39728;SDS011;25402;42.004;23.088;2022-09-02T15:36:13;13.65;;;9.32;;
39728;SDS011;25402;42.004;23.088;2022-09-02T15:38:40;18.55;;;9.60;;
39728;SDS011;25402;42.004;23.088;2022-09-02T15:41:11;17.20;;;9.95;;
39728;SDS011;25402;42.004;23.088;2022-09-02T15:43:41;21.80;;;11.23;;
39728;SDS011;25402;42.004;23.088;2022-09-02T15:46:15;20.80;;;10.95;;
39728;SDS011;25402;42.004;23.088;2022-09-02T15:48:43;20.85;;;10.60;;
39728;SDS011;25402;42.004;23.088;2022-09-02T15:51:11;21.70;;;11.00;;
39728;SDS011;25402;42.004;23.088;2022-09-02T15:53:39;14.18;;;9.60;;
39728;SDS011;25402;42.004;23.088;2022-09-02T15:56:13;21.50;;;9.77;;
39728;SDS011;25402;42.004;23.088;2022-09-02T15:58:43;16.00;;;10.50;;